Date,TemperatureHighF,TemperatureAvgF,TemperatureLowF,DewpointHighF,DewpointAvgF,DewpointLowF,HumidityHigh,HumidityAvg,HumidityLow,PressureMaxIn,PressureMinIn,WindSpeedMaxMPH,WindSpeedAvgMPH,GustSpeedMaxMPH,PrecipitationSumIn
2013-3-1,41.5,38.0,35.2,33.3,30.5,28.5,83,74,65,30.03,29.97,6,0,7,0.00
2013-3-2,38.8,35.3,31.8,30.8,27.5,23.5,85,73,63,30.09,29.97,7,1,8,0.00
2013-3-3,39.7,32.0,24.1,24.1,19.5,17.1,75,61,45,30.12,30.08,9,1,14,0.00
2013-3-4,52.3,36.0,20.8,30.9,24.5,16.6,86,65,38,30.21,30.00,5,0,7,0.00
2013-3-5,50.4,40.0,35.8,46.9,35.2,27.5,89,83,69,30.03,29.65,15,1,17,1.30
2013-3-6,36.3,33.9,30.9,28.8,27.1,24.8,86,76,73,30.28,29.92,10,2,12,0.00
2013-3-7,43.5,36.1,32.7,31.2,27.9,25.6,78,72,61,30.36,30.25,11,1,13,0.00
2013-3-8,56.1,40.1,27.3,31.4,27.0,22.7,84,63,34,30.41,30.28,9,1,11,0.00
2013-3-9,59.9,44.0,30.4,38.9,32.0,25.6,84,65,41,30.33,30.17,7,0,8,0.00
2013-3-10,72.1,54.8,38.5,41.7,36.2,32.9,84,54,27,30.17,29.99,15,2,22,0.00
2013-3-11,62.4,55.7,41.9,51.8,47.2,37.4,88,74,49,30.01,29.74,16,2,18,0.77
2013-3-12,56.1,44.1,35.8,37.5,32.5,29.2,84,65,43,30.14,29.94,7,1,8,0.00
2013-3-13,48.2,37.1,28.9,32.0,25.3,18.5,88,65,41,30.36,30.11,33,2,38,0.00
2013-3-14,50.5,38.1,26.1,31.1,21.0,16.5,69,52,32,30.42,30.25,9,1,10,0.00
2013-3-15,73.0,51.4,29.5,46.0,37.2,25.8,88,62,37,30.28,29.93,10,1,11,0.00
2013-3-16,77.2,65.4,55.2,51.4,46.5,41.9,62,51,39,29.93,29.81,14,3,16,0.00
2013-3-17,77.0,63.4,49.8,54.5,47.9,43.2,79,58,41,29.97,29.85,12,2,17,0.00
2013-3-18,61.5,56.5,50.9,55.7,51.0,46.5,89,82,64,29.92,29.76,14,2,20,0.93
2013-3-19,62.4,48.9,34.0,49.2,32.6,17.8,89,59,27,30.16,29.89,8,1,12,0.00
2013-3-20,60.4,44.3,30.6,30.7,23.4,18.4,71,46,27,30.17,29.93,12,2,14,0.00
2013-3-21,44.4,33.9,23.5,23.9,15.5,10.6,64,48,34,30.05,29.96,12,2,16,0.00
2013-3-22,45.3,36.3,26.1,29.1,21.4,15.8,69,55,42,30.10,30.01,5,0,18,0.00
2013-3-23,55.8,45.7,38.5,43.5,37.5,28.9,86,74,61,30.04,29.78,4,0,6,0.02
2013-3-24,60.4,48.2,40.8,53.6,43.4,32.1,89,83,66,29.82,29.42,14,2,16,0.77
2013-3-25,41.0,36.1,33.4,32.1,27.2,25.5,78,70,63,30.07,29.68,39,4,45,0.00
2013-3-26,42.1,36.2,32.9,29.9,26.8,25.2,81,69,57,30.31,30.07,8,1,9,0.00
2013-3-27,52.3,40.6,27.3,29.4,26.0,23.1,85,59,35,30.37,30.28,8,1,9,0.00
2013-3-28,61.0,42.3,26.8,32.6,26.5,22.3,86,58,29,30.38,30.26,8,1,10,0.00
2013-3-29,45.7,40.4,32.7,41.8,34.0,24.4,88,78,59,30.38,30.25,6,0,7,0.27
2013-3-30,58.6,48.7,41.9,48.1,43.5,38.9,89,83,65,30.25,30.02,18,0,21,0.26
2013-3-31,63.0,55.2,48.0,56.5,51.1,45.0,89,86,73,30.02,29.88,8,1,11,0.43